createdAt,value
2019-05-10T00:02:20.160Z,11.60
2019-05-10T00:05:39.970Z,11.60
2019-05-10T00:08:46.380Z,11.60
2019-05-10T00:12:15.810Z,11.50
2019-05-10T00:15:19.393Z,11.50
2019-05-10T00:18:21.582Z,11.50
2019-05-10T00:21:22.983Z,11.50
2019-05-10T00:24:24.447Z,11.50
2019-05-10T00:27:25.849Z,11.50
2019-05-10T00:30:27.393Z,11.50
2019-05-10T00:33:28.874Z,11.50
2019-05-10T00:36:30.219Z,11.50
2019-05-10T00:39:31.604Z,11.40
2019-05-10T00:42:32.936Z,11.40
2019-05-10T00:45:34.320Z,11.40
2019-05-10T00:48:35.686Z,11.50
2019-05-10T00:51:37.094Z,11.50
2019-05-10T00:54:38.461Z,11.50
2019-05-10T00:57:39.811Z,11.50
2019-05-10T01:00:41.167Z,11.50
2019-05-10T01:03:42.547Z,11.50
2019-05-10T01:06:43.940Z,11.50
2019-05-10T01:09:45.309Z,11.60
2019-05-10T01:12:46.656Z,11.60
2019-05-10T01:15:48.043Z,11.60
2019-05-10T01:18:49.412Z,11.60
2019-05-10T01:21:50.821Z,11.50
2019-05-10T01:24:52.206Z,11.50
2019-05-10T01:27:53.533Z,11.50
2019-05-10T01:30:54.988Z,11.50
2019-05-10T01:33:56.335Z,11.40
2019-05-10T01:36:58.744Z,11.40
2019-05-10T01:40:00.209Z,11.30
2019-05-10T01:43:01.564Z,11.30
2019-05-10T01:46:02.973Z,11.30
2019-05-10T01:49:04.316Z,11.30
2019-05-10T01:52:05.777Z,11.30
2019-05-10T01:55:07.557Z,11.30
2019-05-10T01:58:08.988Z,11.20
2019-05-10T02:01:10.286Z,11.30
2019-05-10T02:04:11.657Z,11.30
2019-05-10T02:07:13.523Z,11.30
2019-05-10T02:10:15.295Z,11.30
2019-05-10T02:13:16.636Z,11.30
2019-05-10T02:16:17.968Z,11.30
2019-05-10T02:19:19.379Z,11.30
2019-05-10T02:22:20.698Z,11.30
2019-05-10T02:25:22.139Z,11.30
2019-05-10T02:28:23.540Z,11.30
2019-05-10T02:31:24.957Z,11.30
2019-05-10T02:34:26.305Z,11.20
2019-05-10T02:37:27.689Z,11.20
2019-05-10T02:40:29.107Z,11.20
2019-05-10T02:43:30.837Z,11.20
2019-05-10T02:46:32.165Z,11.20
2019-05-10T02:49:33.524Z,11.20
2019-05-10T02:52:35.027Z,11.20
2019-05-10T02:55:36.952Z,11.20
2019-05-10T02:58:38.731Z,11.10
2019-05-10T03:01:45.927Z,11.10
2019-05-10T03:04:48.728Z,11.10
2019-05-10T03:07:51.553Z,11.10
2019-05-10T03:10:58.654Z,11.10
2019-05-10T03:14:04.906Z,11.10
2019-05-10T03:17:08.374Z,11.10
2019-05-10T03:20:10.520Z,11.10
2019-05-10T03:23:11.887Z,11.10
2019-05-10T03:26:13.283Z,11.10
2019-05-10T03:29:14.739Z,11.10
2019-05-10T03:32:16.060Z,11.10
2019-05-10T03:35:17.479Z,11.10
2019-05-10T03:38:18.817Z,11.10
2019-05-10T03:41:20.208Z,11.10
2019-05-10T03:44:21.548Z,11.10
2019-05-10T03:47:22.955Z,11.10
2019-05-10T03:50:24.356Z,11.10
2019-05-10T03:53:25.679Z,11.10
2019-05-10T03:56:29.814Z,11.10
2019-05-10T03:59:30.133Z,11.10
2019-05-10T04:02:31.452Z,11.00
2019-05-10T04:05:32.798Z,11.00
2019-05-10T04:08:34.203Z,11.00
2019-05-10T04:11:35.609Z,11.00
2019-05-10T04:14:37.032Z,11.00
2019-05-10T04:17:38.442Z,11.00
2019-05-10T04:20:39.822Z,11.00
2019-05-10T04:23:41.219Z,11.00
2019-05-10T04:26:42.568Z,11.10
2019-05-10T04:29:43.896Z,11.10
2019-05-10T04:32:45.240Z,11.10
2019-05-10T04:35:46.727Z,11.10
2019-05-10T04:38:48.157Z,11.10
2019-05-10T04:41:49.535Z,11.10
2019-05-10T04:44:53.584Z,11.10
2019-05-10T04:47:53.887Z,11.10
2019-05-10T04:50:55.209Z,11.10
2019-05-10T04:53:56.611Z,11.10
2019-05-10T04:57:00.201Z,11.10
2019-05-10T05:00:02.138Z,11.10
2019-05-10T05:03:03.628Z,11.20
2019-05-10T05:06:05.049Z,11.20
2019-05-10T05:09:07.959Z,11.20
2019-05-10T05:12:09.305Z,11.20
2019-05-10T05:15:11.512Z,11.20
2019-05-10T05:18:12.848Z,11.30
2019-05-10T05:21:14.169Z,11.30
2019-05-10T05:24:16.990Z,11.30
2019-05-10T05:27:18.583Z,11.40
2019-05-10T05:30:20.170Z,11.40
2019-05-10T05:33:21.558Z,11.50
2019-05-10T05:36:22.941Z,11.60
2019-05-10T05:39:24.467Z,11.70
2019-05-10T05:42:28.057Z,11.70
2019-05-10T05:45:34.098Z,11.80
2019-05-10T05:48:40.523Z,11.80
2019-05-10T05:51:36.015Z,11.90
2019-05-10T05:54:37.364Z,11.90
2019-05-10T05:57:38.823Z,11.90
2019-05-10T06:00:44.815Z,11.90
2019-05-10T06:03:43.198Z,11.90
2019-05-10T06:06:44.527Z,12.00
2019-05-10T06:09:45.904Z,12.00
2019-05-10T06:12:50.505Z,12.00
2019-05-10T06:15:50.310Z,12.00
2019-05-10T06:18:51.711Z,12.10
2019-05-10T06:21:58.038Z,12.10
2019-05-10T06:24:56.106Z,12.20
2019-05-10T06:27:57.540Z,12.20
2019-05-10T06:30:58.931Z,12.20
2019-05-10T06:34:00.331Z,12.30
2019-05-10T06:37:01.710Z,12.40
2019-05-10T06:40:04.144Z,12.60
2019-05-10T06:43:07.040Z,12.80
2019-05-10T06:46:08.531Z,12.90
2019-05-10T06:49:10.958Z,13.00
2019-05-10T06:52:16.090Z,13.00
2019-05-10T06:55:15.921Z,13.10
2019-05-10T06:58:17.257Z,13.20
2019-05-10T07:01:18.608Z,13.40
2019-05-10T07:04:19.948Z,13.40
2019-05-10T07:07:42.656Z,13.40
2019-05-10T07:10:25.468Z,13.40
2019-05-10T07:13:27.171Z,13.30
2019-05-10T07:16:28.530Z,13.40
2019-05-10T07:19:34.862Z,13.50
2019-05-10T07:22:32.961Z,13.60
2019-05-10T07:25:37.694Z,13.70
2019-05-10T07:28:37.646Z,13.80
2019-05-10T07:31:39.024Z,13.90
2019-05-10T07:34:40.351Z,14.00
2019-05-10T07:37:41.811Z,14.00
2019-05-10T07:40:43.164Z,14.10
2019-05-10T07:43:47.925Z,14.10
2019-05-10T07:46:54.254Z,14.20
2019-05-10T07:49:50.602Z,14.50
2019-05-10T07:53:03.155Z,14.60
2019-05-10T07:56:05.970Z,14.70
2019-05-10T07:59:07.581Z,14.60
2019-05-10T08:02:12.825Z,14.50
2019-05-10T08:05:15.235Z,14.40
2019-05-10T08:08:18.971Z,14.20
2019-05-10T08:11:19.651Z,14.10
2019-05-10T08:14:21.018Z,14.00
2019-05-10T08:17:22.386Z,14.00
2019-05-10T08:20:38.195Z,14.20
2019-05-10T08:23:28.177Z,14.30
2019-05-10T08:26:29.670Z,14.30
2019-05-10T08:29:33.012Z,14.40
2019-05-10T08:32:34.887Z,14.40
2019-05-10T08:35:38.786Z,14.40
2019-05-10T08:38:45.100Z,14.70
2019-05-10T08:41:45.499Z,14.80
2019-05-10T08:44:45.928Z,15.00
2019-05-10T08:47:47.267Z,15.00
2019-05-10T08:50:55.974Z,15.00
2019-05-10T08:53:53.430Z,14.90
2019-05-10T08:57:01.106Z,14.80
2019-05-10T09:00:06.538Z,14.60
2019-05-10T09:03:09.121Z,14.50
2019-05-10T09:06:11.990Z,14.40
2019-05-10T09:09:08.593Z,14.40
2019-05-10T09:12:12.295Z,14.40
2019-05-10T09:15:13.871Z,14.40
2019-05-10T09:18:15.273Z,14.40
2019-05-10T09:21:16.653Z,14.60
2019-05-10T09:24:18.018Z,14.80
2019-05-10T09:27:19.407Z,15.00
2019-05-10T09:30:35.437Z,15.10
2019-05-10T09:33:43.355Z,15.20
2019-05-10T09:36:44.796Z,15.20
2019-05-10T09:39:44.879Z,15.30
2019-05-10T09:42:46.219Z,15.40
2019-05-10T09:45:47.596Z,15.60
2019-05-10T09:48:54.661Z,15.80
2019-05-10T09:51:52.782Z,15.90
2019-05-10T09:54:56.968Z,16.00
2019-05-10T09:57:59.591Z,15.90
2019-05-10T10:01:13.817Z,15.90
2019-05-10T10:04:04.431Z,16.00
2019-05-10T10:07:05.930Z,16.40
2019-05-10T10:10:12.858Z,16.60
2019-05-10T10:13:14.058Z,16.80
2019-05-10T10:16:15.281Z,16.90
2019-05-10T10:19:19.857Z,17.20
2019-05-10T10:22:20.024Z,17.40
2019-05-10T10:25:21.487Z,17.50
2019-05-10T10:28:22.993Z,17.70
2019-05-10T10:31:30.325Z,17.70
2019-05-10T10:34:27.550Z,17.70
2019-05-10T10:37:31.439Z,17.80
2019-05-10T10:40:35.468Z,17.70
2019-05-10T10:43:37.030Z,17.80
2019-05-10T10:46:39.783Z,17.90
2019-05-10T10:49:41.234Z,17.80
2019-05-10T10:52:42.574Z,17.80
2019-05-10T10:55:46.115Z,17.90
2019-05-10T10:58:49.636Z,18.10
2019-05-10T11:02:16.020Z,18.00
2019-05-10T11:04:53.386Z,18.00
2019-05-10T11:07:54.797Z,17.90
2019-05-10T11:10:56.160Z,17.70
2019-05-10T11:14:04.826Z,17.60
2019-05-10T11:17:01.200Z,17.40
2019-05-10T11:20:03.059Z,17.30
2019-05-10T11:23:04.448Z,17.20
2019-05-10T11:26:05.830Z,17.20
2019-05-10T11:29:07.183Z,17.00
2019-05-10T11:32:16.046Z,17.00
2019-05-10T11:35:17.667Z,16.90
2019-05-10T11:38:16.188Z,16.90
2019-05-10T11:41:22.145Z,16.90
2019-05-10T11:44:22.022Z,16.90
2019-05-10T11:47:27.147Z,16.90
2019-05-10T11:50:31.816Z,16.80
2019-05-10T11:53:31.468Z,16.60
2019-05-10T11:56:33.026Z,16.60
2019-05-10T11:59:38.600Z,16.60
2019-05-10T12:02:43.253Z,16.60
2019-05-10T12:05:42.590Z,16.60
2019-05-10T12:08:43.524Z,16.50
2019-05-10T12:11:51.941Z,16.40
2019-05-10T12:14:47.875Z,16.40
2019-05-10T12:17:55.077Z,16.30
2019-05-10T12:21:08.604Z,16.30
2019-05-10T12:23:56.654Z,16.20
2019-05-10T12:27:21.857Z,16.10
2019-05-10T12:30:03.394Z,16.00
2019-05-10T12:33:09.505Z,15.80
2019-05-10T12:36:13.098Z,15.70
2019-05-10T12:39:11.837Z,15.80
2019-05-10T12:42:14.340Z,16.10
2019-05-10T12:45:16.085Z,16.60
2019-05-10T12:48:17.445Z,17.00
2019-05-10T12:51:21.008Z,17.40
2019-05-10T12:54:23.955Z,17.70
2019-05-10T12:57:24.996Z,17.80
2019-05-10T13:00:26.344Z,18.00
2019-05-10T13:03:31.214Z,18.10
2019-05-10T13:06:30.729Z,18.20
2019-05-10T13:09:39.346Z,18.40
2019-05-10T13:12:36.910Z,18.50
2019-05-10T13:15:39.296Z,18.70
2019-05-10T13:18:50.708Z,18.60
2019-05-10T13:21:43.990Z,18.60
2019-05-10T13:24:45.381Z,18.80
2019-05-10T13:27:46.734Z,19.10
2019-05-10T13:30:48.117Z,19.10
2019-05-10T13:33:49.454Z,18.90
2019-05-10T13:36:50.824Z,19.00
2019-05-10T13:39:52.185Z,19.20
2019-05-10T13:42:53.557Z,19.40
2019-05-10T13:45:54.922Z,19.60
2019-05-10T13:48:56.280Z,19.60
2019-05-10T13:51:57.690Z,19.60
2019-05-10T13:54:59.130Z,19.60
2019-05-10T13:58:00.526Z,19.50
2019-05-10T14:01:06.511Z,19.60
2019-05-10T14:04:05.187Z,19.50
2019-05-10T14:07:06.608Z,19.50
2019-05-10T14:10:08.045Z,19.50
2019-05-10T14:13:09.533Z,19.60
2019-05-10T14:16:18.654Z,19.40
2019-05-10T14:19:15.937Z,19.30
2019-05-10T14:22:17.081Z,19.20
2019-05-10T14:25:18.495Z,19.30
2019-05-10T14:28:19.842Z,19.20
2019-05-10T14:31:21.240Z,19.20
2019-05-10T14:34:24.022Z,19.20
2019-05-10T14:37:29.682Z,19.10
2019-05-10T14:40:31.182Z,19.10
2019-05-10T14:43:32.568Z,19.30
2019-05-10T14:46:33.945Z,19.30
2019-05-10T14:49:35.330Z,19.10
2019-05-10T14:52:36.796Z,19.00
2019-05-10T14:55:38.217Z,18.90
2019-05-10T14:58:40.183Z,18.80
2019-05-10T15:01:42.871Z,18.80
2019-05-10T15:04:46.935Z,18.70
2019-05-10T15:07:50.944Z,18.50
2019-05-10T15:10:50.931Z,18.30
2019-05-10T15:13:52.386Z,18.20
2019-05-10T15:16:53.814Z,18.10
2019-05-10T15:19:59.697Z,17.90
2019-05-10T15:22:58.293Z,17.80
2019-05-10T15:26:10.546Z,17.60
2019-05-10T15:29:02.790Z,17.50
2019-05-10T15:32:04.301Z,17.50
2019-05-10T15:35:08.499Z,17.60
2019-05-10T15:38:09.251Z,17.60
2019-05-10T15:41:10.609Z,17.70
2019-05-10T15:44:11.987Z,17.70
2019-05-10T15:47:20.019Z,18.20
2019-05-10T15:50:16.658Z,18.30
2019-05-10T15:53:19.481Z,18.10
2019-05-10T15:56:21.123Z,17.80
2019-05-10T15:59:22.511Z,17.80
2019-05-10T16:02:23.875Z,17.70
2019-05-10T16:05:42.081Z,17.60
2019-05-10T16:08:30.535Z,17.50
2019-05-10T16:11:31.395Z,17.50
2019-05-10T16:14:33.309Z,17.40
2019-05-10T16:17:35.810Z,17.30
2019-05-10T16:20:38.922Z,17.20
2019-05-10T16:23:41.316Z,17.10
2019-05-10T16:26:43.558Z,17.00
2019-05-10T16:29:44.962Z,17.00
2019-05-10T16:32:46.299Z,17.00
2019-05-10T16:35:49.674Z,17.00
2019-05-10T16:38:50.722Z,17.10
2019-05-10T16:41:52.063Z,17.20
2019-05-10T16:44:53.398Z,17.20
2019-05-10T16:47:54.754Z,17.20
2019-05-10T16:50:56.147Z,17.30
2019-05-10T16:53:57.542Z,17.30
2019-05-10T16:56:59.937Z,17.30
2019-05-10T17:00:08.211Z,17.30
2019-05-10T17:03:05.439Z,17.30
2019-05-10T17:06:06.876Z,17.30
2019-05-10T17:09:17.834Z,17.20
2019-05-10T17:12:11.472Z,17.20
2019-05-10T17:15:13.063Z,17.10
2019-05-10T17:18:17.114Z,17.00
2019-05-10T17:21:17.525Z,16.90
2019-05-10T17:24:24.026Z,16.90
2019-05-10T17:27:22.058Z,16.80
2019-05-10T17:30:27.908Z,16.70
2019-05-10T17:33:26.715Z,16.70
2019-05-10T17:36:28.092Z,16.60
2019-05-10T17:39:32.347Z,16.60
2019-05-10T17:42:35.616Z,16.60
2019-05-10T17:45:40.594Z,16.60
2019-05-10T17:48:40.832Z,16.60
2019-05-10T17:51:42.143Z,16.50
2019-05-10T17:54:43.543Z,16.50
2019-05-10T17:57:48.659Z,16.40
2019-05-10T18:00:48.181Z,16.40
2019-05-10T18:03:49.529Z,16.30
2019-05-10T18:06:50.883Z,16.30
2019-05-10T18:09:52.281Z,16.20
2019-05-10T18:12:57.438Z,16.20
2019-05-10T18:15:56.797Z,16.10
2019-05-10T18:18:58.162Z,16.10
2019-05-10T18:22:05.574Z,16.10
2019-05-10T18:25:02.652Z,16.00
2019-05-10T18:28:07.265Z,16.00
2019-05-10T18:31:08.668Z,16.00
2019-05-10T18:34:10.063Z,15.90
2019-05-10T18:37:15.935Z,15.90
2019-05-10T18:40:14.948Z,15.80
2019-05-10T18:43:16.313Z,15.80
2019-05-10T18:46:17.674Z,15.60
2019-05-10T18:49:19.041Z,15.50
2019-05-10T18:52:20.421Z,15.50
2019-05-10T18:55:21.806Z,15.50
2019-05-10T18:58:28.830Z,15.50
2019-05-10T19:01:26.310Z,15.40
2019-05-10T19:04:27.665Z,15.30
2019-05-10T19:07:29.066Z,15.30
2019-05-10T19:10:30.511Z,15.30
2019-05-10T19:13:34.239Z,15.20
2019-05-10T19:16:34.986Z,15.10
2019-05-10T19:19:41.519Z,15.10
2019-05-10T19:22:41.292Z,15.00
2019-05-10T19:25:45.500Z,14.90
2019-05-10T19:28:45.686Z,14.90
2019-05-10T19:31:47.130Z,14.80
2019-05-10T19:34:57.101Z,14.80
2019-05-10T19:37:51.840Z,14.80
2019-05-10T19:40:53.288Z,14.70
2019-05-10T19:44:01.937Z,14.70
2019-05-10T19:46:59.005Z,14.70
2019-05-10T19:50:00.468Z,14.70
2019-05-10T19:53:03.756Z,14.70
2019-05-10T19:56:04.964Z,14.70
2019-05-10T19:59:11.550Z,14.60
2019-05-10T20:02:09.455Z,14.60
2019-05-10T20:05:14.375Z,14.60
2019-05-10T20:08:16.843Z,14.60
2019-05-10T20:11:18.233Z,14.60
2019-05-10T20:14:19.577Z,14.60
2019-05-10T20:17:21.334Z,14.50
2019-05-10T20:20:23.166Z,14.50
2019-05-10T20:23:24.531Z,14.50
2019-05-10T20:26:25.920Z,14.50
2019-05-10T20:29:27.333Z,14.50
2019-05-10T20:32:28.744Z,14.50
2019-05-10T20:35:30.247Z,14.50
2019-05-10T20:38:31.650Z,14.50
2019-05-10T20:41:33.055Z,14.50
2019-05-10T20:44:34.476Z,14.50
2019-05-10T20:47:35.846Z,14.50
2019-05-10T20:50:37.220Z,14.40
2019-05-10T20:53:38.624Z,14.40
2019-05-10T20:56:40.033Z,14.40
2019-05-10T20:59:41.464Z,14.40
2019-05-10T21:02:42.834Z,14.40
2019-05-10T21:05:44.213Z,14.40
2019-05-10T21:08:45.601Z,14.30
2019-05-10T21:11:46.953Z,14.30
2019-05-10T21:14:48.339Z,14.20
2019-05-10T21:17:49.689Z,14.10
2019-05-10T21:20:51.109Z,14.10
2019-05-10T21:23:52.500Z,14.00
2019-05-10T21:26:53.868Z,13.90
2019-05-10T21:29:55.255Z,13.90
2019-05-10T21:32:56.665Z,13.90
2019-05-10T21:35:58.103Z,13.80
2019-05-10T21:38:59.449Z,13.80
2019-05-10T21:42:00.868Z,13.80
2019-05-10T21:45:02.279Z,13.80
2019-05-10T21:48:03.668Z,13.80
2019-05-10T21:51:05.080Z,13.80
2019-05-10T21:54:06.489Z,13.80
2019-05-10T21:57:07.929Z,13.80
2019-05-10T22:00:09.688Z,13.80
2019-05-10T22:03:12.692Z,13.80
2019-05-10T22:06:14.269Z,13.80
2019-05-10T22:09:15.702Z,13.70
2019-05-10T22:12:17.077Z,13.70
2019-05-10T22:15:18.473Z,13.70
2019-05-10T22:18:19.889Z,13.70
2019-05-10T22:21:21.279Z,13.70
2019-05-10T22:24:22.672Z,13.70
2019-05-10T22:27:24.050Z,13.60
2019-05-10T22:30:25.502Z,13.60
2019-05-10T22:33:26.895Z,13.50
2019-05-10T22:36:28.243Z,13.50
2019-05-10T22:39:29.625Z,13.50
2019-05-10T22:42:31.023Z,13.50
2019-05-10T22:45:32.392Z,13.40
2019-05-10T22:48:33.765Z,13.40
2019-05-10T22:51:36.116Z,13.40
2019-05-10T22:54:37.451Z,13.30
2019-05-10T22:57:38.839Z,13.30
2019-05-10T23:00:40.209Z,13.30
2019-05-10T23:03:41.547Z,13.30
2019-05-10T23:06:42.897Z,13.30
2019-05-10T23:09:44.227Z,13.20
2019-05-10T23:12:45.626Z,13.20
2019-05-10T23:15:47.004Z,13.20
2019-05-10T23:18:48.347Z,13.20
2019-05-10T23:21:49.735Z,13.20
2019-05-10T23:24:51.093Z,13.20
2019-05-10T23:27:52.528Z,13.30
2019-05-10T23:30:53.950Z,13.40
2019-05-10T23:33:55.289Z,13.50
2019-05-10T23:36:56.666Z,13.50
2019-05-10T23:39:58.060Z,13.40
2019-05-10T23:42:59.423Z,13.40
2019-05-10T23:46:01.924Z,13.30
2019-05-10T23:49:03.311Z,13.30
2019-05-10T23:52:04.863Z,13.30
2019-05-10T23:55:06.438Z,13.20
2019-05-10T23:58:07.766Z,13.30
